Time;durP1;ratioP1;P1;durP2;ratioP2;P2;SDS_P1;SDS_P2;PMS_P1;PMS_P2;Temp;Humidity;BMP_temperature;BMP_pressure;BME280_temperature;BME280_humidity;BME280_pressure;Samples;Min_cycle;Max_cycle;Signal;HPM_P1;HPM_P2
2021/11/20 00:00:59;;;;;;;8.70;6.20;;;;;;;;;;5055486;28;20777;-62
2021/11/20 00:03:25;;;;;;;14.50;6.83;;;;;;;;;;5055380;28;20486;-61
2021/11/20 00:05:52;;;;;;;11.80;7.10;;;;;;;;;;5055490;28;20451;-61
2021/11/20 00:08:18;;;;;;;12.23;7.27;;;;;;;;;;5055542;28;20220;-62
2021/11/20 00:10:46;;;;;;;8.30;6.00;;;;;;;;;;5053633;28;20465;-62
2021/11/20 00:13:12;;;;;;;11.07;6.40;;;;;;;;;;5054966;28;20457;-62
2021/11/20 00:15:42;;;;;;;11.07;6.87;;;;;;;;;;5055260;28;20459;-62
2021/11/20 00:18:09;;;;;;;6.60;5.70;;;;;;;;;;5055905;28;20451;-61
2021/11/20 00:20:38;;;;;;;11.03;6.33;;;;;;;;;;5055496;28;20467;-61
2021/11/20 00:23:04;;;;;;;12.47;7.97;;;;;;;;;;5054625;28;20459;-62
2021/11/20 00:25:44;;;;;;;8.63;6.43;;;;;;;;;;5054713;28;20483;-61
2021/11/20 00:28:11;;;;;;;9.73;6.60;;;;;;;;;;5055405;28;20212;-61
2021/11/20 00:30:51;;;;;;;11.53;6.50;;;;;;;;;;5054376;28;20560;-62
2021/11/20 00:33:17;;;;;;;7.10;6.40;;;;;;;;;;5054564;28;20771;-62
2021/11/20 00:35:44;;;;;;;11.63;7.67;;;;;;;;;;5054957;28;20455;-62
2021/11/20 00:38:11;;;;;;;8.13;6.93;;;;;;;;;;5055638;28;20459;-61
2021/11/20 00:40:46;;;;;;;8.30;6.90;;;;;;;;;;5055277;28;20438;-61
2021/11/20 00:43:12;;;;;;;12.27;7.50;;;;;;;;;;5055871;28;20524;-62
2021/11/20 00:45:37;;;;;;;8.33;7.17;;;;;;;;;;5055101;28;20427;-61
2021/11/20 00:48:05;;;;;;;9.00;6.50;;;;;;;;;;5055595;28;20776;-60
2021/11/20 00:50:32;;;;;;;14.23;6.20;;;;;;;;;;5055166;28;20588;-62
2021/11/20 00:52:57;;;;;;;18.47;7.80;;;;;;;;;;5055106;28;20458;-61
2021/11/20 00:55:25;;;;;;;9.57;6.90;;;;;;;;;;5055125;28;20435;-62
2021/11/20 00:57:52;;;;;;;8.23;6.70;;;;;;;;;;5054025;28;20232;-61
2021/11/20 01:00:23;;;;;;;13.90;7.67;;;;;;;;;;5054683;28;20442;-62
2021/11/20 01:02:48;;;;;;;8.80;7.13;;;;;;;;;;5054407;28;20447;-62
2021/11/20 01:05:15;;;;;;;8.40;7.30;;;;;;;;;;5054751;28;20463;-62
2021/11/20 01:07:41;;;;;;;10.27;6.67;;;;;;;;;;5056991;28;20296;-61
2021/11/20 01:10:09;;;;;;;12.63;5.90;;;;;;;;;;5058541;28;20836;-61
2021/11/20 01:12:35;;;;;;;8.47;6.80;;;;;;;;;;5059523;28;20230;-62
2021/11/20 01:15:01;;;;;;;12.57;6.07;;;;;;;;;;5059199;28;20430;-62
2021/11/20 01:17:28;;;;;;;6.83;6.10;;;;;;;;;;5058967;28;20508;-61
2021/11/20 01:19:54;;;;;;;10.40;6.60;;;;;;;;;;5058790;28;20911;-62
2021/11/20 01:22:21;;;;;;;9.73;6.67;;;;;;;;;;5059241;28;20455;-62
2021/11/20 01:24:47;;;;;;;8.10;6.57;;;;;;;;;;5058346;28;20224;-62
2021/11/20 01:27:13;;;;;;;8.03;7.10;;;;;;;;;;5059285;28;20528;-62
2021/11/20 01:29:38;;;;;;;8.00;6.97;;;;;;;;;;5058969;28;20641;-62
2021/11/20 01:32:05;;;;;;;8.00;5.90;;;;;;;;;;5058958;28;20261;-63
2021/11/20 01:34:31;;;;;;;7.70;5.90;;;;;;;;;;5057723;28;20284;-62
2021/11/20 01:36:58;;;;;;;7.23;6.53;;;;;;;;;;5058612;28;20459;-62
2021/11/20 01:39:28;;;;;;;8.50;6.37;;;;;;;;;;5059298;28;20437;-61
2021/11/20 01:42:00;;;;;;;7.73;6.23;;;;;;;;;;5057453;28;20418;-63
2021/11/20 01:44:36;;;;;;;8.80;6.37;;;;;;;;;;5057787;28;20450;-62
2021/11/20 01:47:16;;;;;;;8.30;6.43;;;;;;;;;;5057372;28;20529;-61
2021/11/20 01:49:43;;;;;;;10.03;5.63;;;;;;;;;;5058010;28;20526;-62
2021/11/20 01:52:15;;;;;;;6.60;5.53;;;;;;;;;;5057302;28;20956;-61
2021/11/20 01:54:52;;;;;;;10.20;6.10;;;;;;;;;;5041429;28;20463;-62
2021/11/20 01:57:24;;;;;;;8.27;6.10;;;;;;;;;;5056920;28;20485;-62
2021/11/20 01:59:56;;;;;;;11.00;6.13;;;;;;;;;;5058011;28;20940;-62
2021/11/20 02:02:34;;;;;;;6.30;5.70;;;;;;;;;;5058654;28;20503;-61
2021/11/20 02:05:04;;;;;;;6.33;5.50;;;;;;;;;;5057876;28;20838;-61
2021/11/20 02:07:33;;;;;;;8.50;6.17;;;;;;;;;;5057553;28;20534;-62
2021/11/20 02:10:22;;;;;;;7.80;5.30;;;;;;;;;;5058103;28;20498;-60
2021/11/20 02:12:54;;;;;;;6.23;5.63;;;;;;;;;;5056783;28;20660;-61
2021/11/20 02:15:31;;;;;;;6.07;4.47;;;;;;;;;;5058624;28;20445;-62
2021/11/20 02:17:58;;;;;;;8.63;5.73;;;;;;;;;;5057432;28;20883;-61
2021/11/20 02:20:28;;;;;;;6.10;4.87;;;;;;;;;;5057402;28;20464;-61
2021/11/20 02:22:54;;;;;;;11.70;6.23;;;;;;;;;;5056310;28;20463;-61
2021/11/20 02:25:21;;;;;;;5.90;4.70;;;;;;;;;;5057436;28;20451;-61
2021/11/20 02:27:49;;;;;;;5.60;4.73;;;;;;;;;;5057916;28;20215;-60
2021/11/20 02:30:39;;;;;;;8.80;5.70;;;;;;;;;;5057921;28;20466;-61
2021/11/20 02:33:19;;;;;;;4.67;4.17;;;;;;;;;;5057562;28;20515;-62
2021/11/20 02:35:48;;;;;;;8.00;4.60;;;;;;;;;;5057195;28;20463;-61
2021/11/20 02:38:21;;;;;;;4.37;3.97;;;;;;;;;;5057459;28;20537;-60
2021/11/20 02:40:46;;;;;;;7.10;3.63;;;;;;;;;;5057152;28;20467;-61
2021/11/20 02:43:13;;;;;;;6.23;3.60;;;;;;;;;;5058004;28;20955;-61
2021/11/20 02:45:41;;;;;;;5.50;4.20;;;;;;;;;;5057341;28;20246;-61
2021/11/20 02:48:08;;;;;;;8.67;4.80;;;;;;;;;;5055622;28;20461;-61
2021/11/20 02:50:43;;;;;;;5.90;3.97;;;;;;;;;;5057900;28;20522;-62
2021/11/20 02:53:17;;;;;;;5.87;4.17;;;;;;;;;;5057191;28;20443;-62
2021/11/20 02:55:49;;;;;;;8.30;3.80;;;;;;;;;;5056974;28;20549;-61
2021/11/20 02:58:18;;;;;;;6.10;4.00;;;;;;;;;;5056939;28;20937;-61
2021/11/20 03:00:44;;;;;;;5.93;4.20;;;;;;;;;;5056864;28;20441;-62
2021/11/20 03:03:09;;;;;;;6.00;4.47;;;;;;;;;;5056167;28;20427;-62
2021/11/20 03:05:35;;;;;;;4.90;4.37;;;;;;;;;;5056392;28;20430;-62
2021/11/20 03:08:00;;;;;;;6.33;3.70;;;;;;;;;;5055563;28;20212;-62
2021/11/20 03:10:25;;;;;;;5.07;4.23;;;;;;;;;;5056575;28;20529;-60
2021/11/20 03:12:51;;;;;;;5.80;4.03;;;;;;;;;;5056571;28;20220;-61
2021/11/20 03:15:16;;;;;;;7.63;3.97;;;;;;;;;;5056882;28;20213;-61
2021/11/20 03:17:42;;;;;;;6.10;4.23;;;;;;;;;;5056210;28;20799;-62
2021/11/20 03:20:12;;;;;;;4.50;4.10;;;;;;;;;;5055543;28;20228;-61
2021/11/20 03:22:47;;;;;;;4.10;3.70;;;;;;;;;;5056304;28;20216;-62
2021/11/20 03:25:12;;;;;;;7.70;4.10;;;;;;;;;;5056116;28;20933;-62
2021/11/20 03:27:38;;;;;;;5.23;3.83;;;;;;;;;;5056460;28;20532;-62
2021/11/20 03:30:06;;;;;;;6.80;4.50;;;;;;;;;;5055930;28;20287;-62
2021/11/20 03:32:32;;;;;;;6.67;4.17;;;;;;;;;;5056637;28;20236;-61
2021/11/20 03:34:58;;;;;;;5.23;4.17;;;;;;;;;;5056654;28;20459;-60
2021/11/20 03:37:23;;;;;;;5.60;3.73;;;;;;;;;;5056499;28;20217;-62
2021/11/20 03:39:50;;;;;;;7.20;4.57;;;;;;;;;;5056097;28;20216;-62
2021/11/20 03:42:16;;;;;;;6.47;4.93;;;;;;;;;;5055665;28;20220;-61
2021/11/20 03:44:42;;;;;;;6.30;4.90;;;;;;;;;;5056016;28;20460;-61
2021/11/20 03:47:07;;;;;;;6.00;4.80;;;;;;;;;;5055879;28;20648;-61
2021/11/20 03:49:33;;;;;;;6.20;4.50;;;;;;;;;;5056670;28;20653;-61
2021/11/20 03:51:59;;;;;;;5.33;4.40;;;;;;;;;;5056428;28;20217;-61
2021/11/20 03:54:24;;;;;;;8.60;4.97;;;;;;;;;;5056707;28;20525;-61
2021/11/20 03:56:50;;;;;;;5.80;5.20;;;;;;;;;;5055426;28;20232;-61
2021/11/20 03:59:15;;;;;;;6.50;3.90;;;;;;;;;;5055679;28;20234;-61
2021/11/20 04:01:41;;;;;;;6.00;4.90;;;;;;;;;;5056313;28;20225;-62
2021/11/20 04:04:06;;;;;;;5.73;4.83;;;;;;;;;;5056081;28;20213;-61
2021/11/20 04:06:32;;;;;;;4.73;4.00;;;;;;;;;;5056817;28;20661;-61
2021/11/20 04:08:57;;;;;;;5.13;4.50;;;;;;;;;;5056222;28;20217;-60
2021/11/20 04:11:29;;;;;;;4.60;4.07;;;;;;;;;;5055538;28;20229;-61
2021/11/20 04:13:55;;;;;;;4.40;4.00;;;;;;;;;;5056238;28;20248;-62
2021/11/20 04:16:22;;;;;;;6.47;4.73;;;;;;;;;;5056411;28;20462;-61
2021/11/20 04:18:47;;;;;;;5.20;4.10;;;;;;;;;;5056286;28;20281;-61
2021/11/20 04:21:13;;;;;;;6.90;3.97;;;;;;;;;;5056035;28;20445;-62
2021/11/20 04:23:40;;;;;;;4.27;3.87;;;;;;;;;;5056618;28;20209;-62
2021/11/20 04:26:06;;;;;;;6.37;4.20;;;;;;;;;;5056128;28;20427;-62
2021/11/20 04:28:32;;;;;;;7.50;4.83;;;;;;;;;;5055814;28;20462;-61
2021/11/20 04:30:57;;;;;;;5.00;3.43;;;;;;;;;;5055854;28;20231;-61
2021/11/20 04:33:23;;;;;;;4.83;4.23;;;;;;;;;;5055647;28;20930;-61
2021/11/20 04:35:48;;;;;;;4.53;3.87;;;;;;;;;;5055666;28;20231;-61
2021/11/20 04:38:14;;;;;;;5.53;4.00;;;;;;;;;;5055320;28;20231;-62
2021/11/20 04:40:41;;;;;;;8.50;4.37;;;;;;;;;;5055242;28;20217;-62
2021/11/20 04:43:07;;;;;;;5.27;4.23;;;;;;;;;;5054623;28;20217;-62
2021/11/20 04:45:33;;;;;;;6.10;4.33;;;;;;;;;;5055754;28;20528;-62
2021/11/20 04:48:02;;;;;;;4.43;4.03;;;;;;;;;;5055527;28;21008;-61
2021/11/20 04:50:28;;;;;;;6.60;3.70;;;;;;;;;;5055189;28;20540;-61
2021/11/20 04:52:54;;;;;;;5.27;4.03;;;;;;;;;;5055678;28;20492;-62
2021/11/20 04:55:20;;;;;;;4.20;3.60;;;;;;;;;;5054196;28;20523;-62
2021/11/20 04:57:46;;;;;;;7.33;4.20;;;;;;;;;;5055301;28;20804;-61
2021/11/20 05:00:19;;;;;;;4.37;3.97;;;;;;;;;;5054840;28;20459;-61
2021/11/20 05:02:44;;;;;;;5.27;4.00;;;;;;;;;;5055386;28;20298;-61
2021/11/20 05:05:10;;;;;;;4.80;3.80;;;;;;;;;;5054847;28;20452;-61
2021/11/20 05:07:35;;;;;;;4.67;4.13;;;;;;;;;;5055111;28;20216;-61
2021/11/20 05:10:01;;;;;;;4.10;3.73;;;;;;;;;;5054525;28;20309;-61
2021/11/20 05:12:27;;;;;;;4.63;3.63;;;;;;;;;;5055320;28;20294;-62
2021/11/20 05:14:52;;;;;;;5.40;4.30;;;;;;;;;;5055415;28;20459;-62
2021/11/20 05:17:18;;;;;;;4.00;3.53;;;;;;;;;;5054870;28;20236;-63
2021/11/20 05:19:43;;;;;;;4.03;3.50;;;;;;;;;;5055022;28;20213;-62
2021/11/20 05:22:09;;;;;;;5.30;3.53;;;;;;;;;;5054245;28;20209;-61
2021/11/20 05:24:34;;;;;;;4.87;3.93;;;;;;;;;;5054622;28;20221;-62
2021/11/20 05:27:02;;;;;;;6.40;4.20;;;;;;;;;;5054639;28;20221;-62
2021/11/20 05:31:59;;;;;;;4.30;3.53;;;;;;;;;;5054250;28;20483;-62
2021/11/20 05:34:24;;;;;;;7.03;4.40;;;;;;;;;;5054308;28;20793;-62
2021/11/20 05:36:49;;;;;;;9.87;5.47;;;;;;;;;;5054126;28;20687;-62
2021/11/20 05:39:15;;;;;;;6.00;4.27;;;;;;;;;;5054383;28;20761;-62
2021/11/20 05:41:41;;;;;;;5.37;3.80;;;;;;;;;;5055016;28;20225;-61
2021/11/20 05:44:07;;;;;;;3.60;3.30;;;;;;;;;;5054836;28;20218;-61
2021/11/20 05:46:32;;;;;;;9.13;4.40;;;;;;;;;;5054929;28;20214;-61
2021/11/20 05:48:58;;;;;;;5.47;3.97;;;;;;;;;;5055150;28;20470;-62
2021/11/20 05:51:23;;;;;;;6.33;4.50;;;;;;;;;;5054146;28;20532;-62
2021/11/20 05:53:49;;;;;;;8.13;3.37;;;;;;;;;;5056676;28;20216;-62
2021/11/20 05:56:15;;;;;;;5.13;3.77;;;;;;;;;;5057187;28;20260;-62
2021/11/20 05:58:40;;;;;;;6.30;4.03;;;;;;;;;;5057857;28;20857;-62
2021/11/20 06:01:10;;;;;;;4.30;3.43;;;;;;;;;;5057533;28;20666;-61
2021/11/20 06:03:36;;;;;;;3.90;3.50;;;;;;;;;;5057256;28;20267;-63
2021/11/20 06:06:02;;;;;;;5.47;3.70;;;;;;;;;;5058122;28;20590;-64
2021/11/20 06:08:28;;;;;;;25.30;21.37;;;;;;;;;;5058815;28;20468;-63
2021/11/20 06:10:56;;;;;;;15.40;11.23;;;;;;;;;;5059119;28;20463;-63
2021/11/20 06:13:23;;;;;;;4.20;3.27;;;;;;;;;;5055599;28;20222;-61
2021/11/20 06:15:50;;;;;;;5.77;5.27;;;;;;;;;;5036148;28;20460;-61
2021/11/20 06:18:16;;;;;;;3.37;3.07;;;;;;;;;;5034970;28;20468;-60
2021/11/20 06:20:44;;;;;;;3.07;2.77;;;;;;;;;;5047112;28;20463;-62
2021/11/20 06:23:11;;;;;;;3.73;3.20;;;;;;;;;;5045372;28;20221;-60
2021/11/20 06:25:37;;;;;;;5.33;3.10;;;;;;;;;;5044575;28;20483;-60
2021/11/20 06:28:03;;;;;;;3.40;2.90;;;;;;;;;;5047631;28;20487;-62
2021/11/20 06:30:29;;;;;;;2.97;2.70;;;;;;;;;;5050477;28;20221;-61
2021/11/20 06:32:54;;;;;;;4.53;2.93;;;;;;;;;;5048255;28;20462;-61
2021/11/20 06:35:23;;;;;;;3.40;3.00;;;;;;;;;;5043564;28;20989;-61
2021/11/20 06:37:49;;;;;;;4.93;3.50;;;;;;;;;;5047218;28;20690;-60
2021/11/20 06:40:21;;;;;;;3.47;2.70;;;;;;;;;;5049932;28;20484;-60
2021/11/20 06:42:47;;;;;;;3.97;3.50;;;;;;;;;;5047793;28;20227;-60
2021/11/20 06:45:19;;;;;;;3.43;3.13;;;;;;;;;;5043429;28;20947;-60
2021/11/20 06:47:44;;;;;;;3.23;2.93;;;;;;;;;;5043076;28;20757;-61
2021/11/20 06:50:10;;;;;;;8.47;4.93;;;;;;;;;;5048138;28;20495;-61
2021/11/20 06:52:36;;;;;;;6.53;3.83;;;;;;;;;;5048203;28;20223;-62
2021/11/20 06:55:01;;;;;;;8.97;4.10;;;;;;;;;;5042464;28;20535;-61
2021/11/20 07:02:52;;;;;;;3.90;3.40;;;;;;;;;;5049406;28;20525;-61
2021/11/20 07:05:20;;;;;;;5.00;4.00;;;;;;;;;;5044820;28;20442;-61
2021/11/20 07:07:46;;;;;;;4.53;4.13;;;;;;;;;;5043005;28;20465;-62
2021/11/20 07:10:11;;;;;;;6.97;4.40;;;;;;;;;;5046240;28;20511;-61
2021/11/20 07:12:37;;;;;;;6.07;5.20;;;;;;;;;;5050110;28;20799;-62
2021/11/20 07:15:03;;;;;;;7.03;5.50;;;;;;;;;;5044696;28;20237;-61
2021/11/20 07:17:28;;;;;;;4.70;3.90;;;;;;;;;;5042864;28;20260;-61
2021/11/20 07:19:55;;;;;;;6.10;5.20;;;;;;;;;;5038887;28;20555;-62
2021/11/20 07:22:20;;;;;;;8.60;5.40;;;;;;;;;;5047959;28;20878;-61
2021/11/20 07:24:45;;;;;;;8.37;5.47;;;;;;;;;;5048510;28;20229;-61
2021/11/20 07:27:11;;;;;;;5.43;4.90;;;;;;;;;;5042685;28;20221;-61
2021/11/20 07:29:36;;;;;;;8.50;5.57;;;;;;;;;;5044541;28;20226;-62
2021/11/20 07:32:02;;;;;;;10.57;5.63;;;;;;;;;;5049439;28;20230;-62
2021/11/20 07:34:27;;;;;;;7.23;5.20;;;;;;;;;;5048424;28;20236;-61
2021/11/20 07:36:55;;;;;;;7.73;5.87;;;;;;;;;;5041729;28;20232;-61
2021/11/20 07:39:20;;;;;;;7.63;5.50;;;;;;;;;;5043538;28;20621;-62
2021/11/20 07:41:47;;;;;;;8.90;7.20;;;;;;;;;;5048441;28;20440;-61
2021/11/20 07:44:13;;;;;;;7.90;6.60;;;;;;;;;;5047182;28;20221;-62
2021/11/20 07:46:38;;;;;;;7.30;6.30;;;;;;;;;;5042625;28;20935;-62
2021/11/20 07:49:05;;;;;;;14.20;6.80;;;;;;;;;;5044294;28;20519;-61
2021/11/20 07:51:31;;;;;;;7.40;6.50;;;;;;;;;;5050244;28;20324;-61
2021/11/20 07:53:57;;;;;;;10.80;6.83;;;;;;;;;;5035830;28;20445;-62
2021/11/20 07:56:22;;;;;;;15.33;9.30;;;;;;;;;;5048939;28;20526;-61
2021/11/20 07:58:48;;;;;;;9.47;7.47;;;;;;;;;;5040268;28;20301;-63
2021/11/20 08:01:14;;;;;;;13.97;8.10;;;;;;;;;;5040271;28;20668;-63
2021/11/20 08:03:40;;;;;;;10.03;8.00;;;;;;;;;;5044515;28;20438;-61
2021/11/20 08:06:05;;;;;;;9.37;7.53;;;;;;;;;;5048688;28;20814;-63
2021/11/20 08:08:31;;;;;;;10.43;9.30;;;;;;;;;;5047402;28;20227;-63
2021/11/20 08:10:56;;;;;;;10.93;9.07;;;;;;;;;;5041576;28;20229;-62
2021/11/20 08:13:22;;;;;;;12.70;9.70;;;;;;;;;;5044308;28;20924;-62
2021/11/20 08:15:48;;;;;;;12.67;9.20;;;;;;;;;;5044911;28;20630;-62
2021/11/20 08:18:13;;;;;;;15.43;9.27;;;;;;;;;;5034959;28;20275;-62
2021/11/20 08:20:42;;;;;;;10.87;8.10;;;;;;;;;;5049045;28;20222;-62
2021/11/20 08:23:09;;;;;;;13.70;8.53;;;;;;;;;;5036302;28;20245;-63
2021/11/20 08:25:37;;;;;;;11.27;8.63;;;;;;;;;;5048155;28;20475;-62
2021/11/20 08:28:03;;;;;;;11.03;8.77;;;;;;;;;;5046339;28;20464;-63
2021/11/20 08:30:30;;;;;;;11.33;8.40;;;;;;;;;;5041139;28;20439;-63
2021/11/20 08:32:57;;;;;;;12.97;8.07;;;;;;;;;;5042290;28;20443;-62
2021/11/20 08:35:22;;;;;;;8.47;7.67;;;;;;;;;;5047695;28;20450;-62
2021/11/20 08:37:48;;;;;;;11.33;9.40;;;;;;;;;;5045238;28;20442;-63
2021/11/20 08:40:18;;;;;;;12.73;7.80;;;;;;;;;;5040730;28;20583;-62
2021/11/20 08:42:44;;;;;;;18.27;8.33;;;;;;;;;;5042747;28;20292;-63
2021/11/20 08:45:13;;;;;;;10.87;8.63;;;;;;;;;;5047583;28;20457;-63
2021/11/20 08:47:39;;;;;;;11.43;8.57;;;;;;;;;;5047167;28;20460;-62
2021/11/20 08:50:08;;;;;;;11.10;7.80;;;;;;;;;;5041054;28;20482;-62
2021/11/20 08:52:33;;;;;;;11.03;7.60;;;;;;;;;;5041483;28;20217;-62
2021/11/20 08:54:59;;;;;;;10.67;7.27;;;;;;;;;;5043257;28;20752;-63
2021/11/20 08:57:24;;;;;;;10.83;7.30;;;;;;;;;;5047178;28;20602;-62
2021/11/20 08:59:50;;;;;;;9.93;7.63;;;;;;;;;;5041212;28;20609;-63
2021/11/20 09:02:34;;;;;;;9.30;7.50;;;;;;;;;;5040978;28;20217;-62
2021/11/20 09:05:02;;;;;;;10.83;9.30;;;;;;;;;;5031128;28;20459;-63
2021/11/20 09:07:49;;;;;;;10.50;6.77;;;;;;;;;;5041163;28;20471;-62
2021/11/20 09:10:23;;;;;;;10.50;7.07;;;;;;;;;;5043152;28;20543;-62
2021/11/20 09:12:49;;;;;;;8.00;6.60;;;;;;;;;;5048069;28;20499;-63
2021/11/20 09:15:21;;;;;;;7.73;6.40;;;;;;;;;;5041247;28;20453;-63
2021/11/20 09:17:49;;;;;;;8.90;7.57;;;;;;;;;;5047463;28;20267;-63
2021/11/20 09:20:15;;;;;;;9.80;7.27;;;;;;;;;;5035093;28;20804;-63
2021/11/20 09:22:41;;;;;;;14.03;6.90;;;;;;;;;;5046777;28;20443;-62
2021/11/20 09:25:07;;;;;;;9.30;7.07;;;;;;;;;;5046225;28;20493;-63
2021/11/20 09:27:33;;;;;;;8.97;7.23;;;;;;;;;;5042080;28;20286;-62
2021/11/20 09:29:59;;;;;;;9.60;6.83;;;;;;;;;;5045361;28;20447;-62
2021/11/20 09:32:24;;;;;;;9.47;6.63;;;;;;;;;;5052438;28;20435;-61
2021/11/20 09:34:49;;;;;;;8.40;7.20;;;;;;;;;;5051887;28;20287;-63
2021/11/20 09:37:16;;;;;;;12.70;7.90;;;;;;;;;;5044582;28;20225;-62
2021/11/20 09:39:43;;;;;;;9.13;6.50;;;;;;;;;;5045725;28;20257;-62
2021/11/20 09:42:11;;;;;;;14.13;9.60;;;;;;;;;;5051212;28;20460;-62
2021/11/20 09:44:40;;;;;;;8.60;6.40;;;;;;;;;;5051530;28;20434;-62
2021/11/20 09:47:14;;;;;;;8.80;6.53;;;;;;;;;;5031069;28;20459;-62
2021/11/20 09:49:46;;;;;;;11.17;6.53;;;;;;;;;;5045135;28;20434;-62
2021/11/20 09:52:12;;;;;;;9.53;6.50;;;;;;;;;;5048488;28;20464;-63
2021/11/20 09:54:40;;;;;;;9.60;6.90;;;;;;;;;;5052163;28;20794;-62
2021/11/20 09:57:05;;;;;;;9.57;6.23;;;;;;;;;;5046941;28;20221;-62
2021/11/20 09:59:39;;;;;;;6.13;5.47;;;;;;;;;;5044836;28;20458;-62
2021/11/20 10:02:13;;;;;;;8.83;7.10;;;;;;;;;;5047627;28;20653;-62
2021/11/20 10:05:00;;;;;;;10.57;6.47;;;;;;;;;;5052131;28;20451;-63
2021/11/20 10:07:30;;;;;;;7.40;5.60;;;;;;;;;;5051407;28;20760;-63
2021/11/20 10:10:15;;;;;;;7.17;5.10;;;;;;;;;;5031958;28;20467;-63
2021/11/20 10:12:47;;;;;;;12.57;7.07;;;;;;;;;;5044198;28;20882;-62
2021/11/20 10:15:23;;;;;;;10.80;5.33;;;;;;;;;;5046457;28;20443;-62
2021/11/20 10:18:14;;;;;;;9.60;6.33;;;;;;;;;;5050258;28;20783;-63
2021/11/20 10:20:54;;;;;;;7.43;5.33;;;;;;;;;;5025941;28;20456;-63
2021/11/20 10:23:47;;;;;;;9.00;5.80;;;;;;;;;;5042178;28;20429;-62
2021/11/20 10:26:34;;;;;;;7.93;5.20;;;;;;;;;;5046150;28;20530;-63
2021/11/20 10:29:14;;;;;;;6.80;6.20;;;;;;;;;;5029668;28;20529;-62
2021/11/20 10:31:49;;;;;;;5.83;5.23;;;;;;;;;;5043533;28;20492;-62
2021/11/20 10:34:42;;;;;;;9.73;6.70;;;;;;;;;;5046152;28;20448;-63
2021/11/20 10:37:17;;;;;;;6.97;6.10;;;;;;;;;;5030695;28;20558;-62
2021/11/20 10:39:47;;;;;;;11.40;5.87;;;;;;;;;;5042125;28;20443;-63
2021/11/20 10:42:18;;;;;;;8.80;5.33;;;;;;;;;;5046140;28;20539;-63
2021/11/20 10:44:51;;;;;;;8.97;6.30;;;;;;;;;;5049941;28;20459;-63
2021/11/20 10:47:16;;;;;;;12.00;6.53;;;;;;;;;;5046200;28;20450;-63
2021/11/20 10:50:14;;;;;;;8.10;5.60;;;;;;;;;;5042956;28;20456;-62
2021/11/20 10:53:17;;;;;;;7.80;7.13;;;;;;;;;;5041191;28;20621;-62
2021/11/20 10:56:20;;;;;;;7.30;6.13;;;;;;;;;;5042677;28;20515;-62
2021/11/20 10:59:06;;;;;;;10.80;6.93;;;;;;;;;;5039329;28;20464;-62
2021/11/20 11:01:34;;;;;;;7.70;7.00;;;;;;;;;;5030785;28;20942;-64
2021/11/20 11:04:32;;;;;;;10.77;8.70;;;;;;;;;;5041265;28;20553;-63
2021/11/20 11:07:10;;;;;;;9.10;8.27;;;;;;;;;;5035048;28;20458;-62
2021/11/20 11:09:48;;;;;;;7.90;7.20;;;;;;;;;;5013126;28;20434;-62
2021/11/20 11:12:27;;;;;;;9.97;7.97;;;;;;;;;;5041987;28;20455;-63
2021/11/20 11:15:00;;;;;;;9.20;8.20;;;;;;;;;;5046341;28;20467;-63
2021/11/20 11:17:37;;;;;;;8.23;6.50;;;;;;;;;;5047840;28;20468;-63
2021/11/20 11:20:28;;;;;;;9.57;8.00;;;;;;;;;;5034813;28;20464;-63
2021/11/20 11:23:13;;;;;;;13.53;7.73;;;;;;;;;;5035224;28;20464;-64
2021/11/20 11:25:58;;;;;;;11.97;7.60;;;;;;;;;;5047651;28;20480;-63
2021/11/20 11:28:42;;;;;;;12.00;8.60;;;;;;;;;;5047504;28;20853;-63
2021/11/20 11:31:11;;;;;;;10.40;7.90;;;;;;;;;;5046028;28;20459;-62
2021/11/20 11:33:49;;;;;;;10.37;8.50;;;;;;;;;;5040905;28;20536;-62
2021/11/20 11:36:22;;;;;;;8.50;7.50;;;;;;;;;;5042789;28;20534;-63
2021/11/20 11:39:03;;;;;;;11.27;8.37;;;;;;;;;;5049024;28;20468;-62
2021/11/20 11:41:35;;;;;;;12.53;8.20;;;;;;;;;;5047084;28;20460;-62
2021/11/20 11:44:27;;;;;;;13.93;8.50;;;;;;;;;;5044520;28;20458;-63
2021/11/20 11:46:56;;;;;;;42.33;35.07;;;;;;;;;;5041125;28;20430;-63
2021/11/20 11:49:51;;;;;;;15.10;11.60;;;;;;;;;;5041976;28;20456;-62
2021/11/20 11:52:30;;;;;;;17.10;13.33;;;;;;;;;;5044779;28;20465;-62
2021/11/20 11:55:39;;;;;;;21.67;17.80;;;;;;;;;;5048465;28;20519;-62
2021/11/20 11:58:19;;;;;;;20.00;13.17;;;;;;;;;;5014800;28;20479;-63
2021/11/20 12:01:03;;;;;;;22.07;17.00;;;;;;;;;;5042177;28;20456;-63
2021/11/20 12:03:36;;;;;;;20.20;15.50;;;;;;;;;;5033931;28;20479;-62
2021/11/20 12:06:45;;;;;;;28.10;21.73;;;;;;;;;;5041863;28;20442;-62
2021/11/20 12:09:16;;;;;;;17.87;13.50;;;;;;;;;;5041218;28;20458;-62
2021/11/20 12:11:43;;;;;;;23.43;17.93;;;;;;;;;;5045291;28;20464;-62
2021/11/20 12:14:13;;;;;;;11.27;10.17;;;;;;;;;;5048397;28;20919;-62
2021/11/20 12:16:58;;;;;;;15.70;13.87;;;;;;;;;;5045895;28;20832;-63
2021/11/20 12:19:35;;;;;;;22.77;14.40;;;;;;;;;;5034707;28;20498;-62
2021/11/20 12:22:05;;;;;;;18.40;15.90;;;;;;;;;;5047887;28;21799;-63
2021/11/20 12:25:14;;;;;;;13.50;12.10;;;;;;;;;;5044365;28;20459;-62
2021/11/20 12:27:58;;;;;;;18.10;16.23;;;;;;;;;;5031685;28;20922;-61
2021/11/20 12:30:31;;;;;;;15.50;9.60;;;;;;;;;;5041078;28;20477;-62
2021/11/20 12:33:15;;;;;;;14.20;11.40;;;;;;;;;;5043171;28;20481;-62
2021/11/20 12:35:49;;;;;;;10.73;9.63;;;;;;;;;;5028667;28;20476;-62
2021/11/20 12:38:26;;;;;;;11.40;9.93;;;;;;;;;;5040908;28;20446;-62
2021/11/20 12:41:16;;;;;;;14.00;9.67;;;;;;;;;;5044982;28;21317;-63
2021/11/20 12:44:02;;;;;;;10.77;9.77;;;;;;;;;;5047885;28;20772;-62
2021/11/20 12:46:49;;;;;;;12.00;10.33;;;;;;;;;;5048071;28;20466;-62
2021/11/20 12:49:42;;;;;;;11.90;9.90;;;;;;;;;;5046512;28;20542;-62
2021/11/20 12:52:23;;;;;;;11.63;10.43;;;;;;;;;;5032205;28;20509;-63
2021/11/20 12:54:57;;;;;;;12.30;9.90;;;;;;;;;;5041744;28;20509;-62
2021/11/20 12:57:40;;;;;;;11.57;10.50;;;;;;;;;;5042996;28;20475;-62
2021/11/20 13:00:08;;;;;;;13.30;9.47;;;;;;;;;;5029107;28;20788;-62
2021/11/20 13:02:55;;;;;;;11.50;9.83;;;;;;;;;;5041817;28;20482;-62
2021/11/20 13:05:29;;;;;;;11.43;10.33;;;;;;;;;;5048189;28;20499;-62
2021/11/20 13:08:02;;;;;;;11.27;10.00;;;;;;;;;;5051822;28;20472;-62
2021/11/20 13:10:33;;;;;;;14.00;11.50;;;;;;;;;;5050474;28;20470;-62
2021/11/20 13:13:20;;;;;;;12.90;10.67;;;;;;;;;;5045172;28;20793;-62
2021/11/20 13:16:27;;;;;;;11.80;10.70;;;;;;;;;;5044585;28;20460;-62
2021/11/20 13:19:21;;;;;;;11.93;10.73;;;;;;;;;;5042499;28;20464;-62
2021/11/20 13:22:06;;;;;;;12.30;11.00;;;;;;;;;;5050208;28;20448;-62
2021/11/20 13:24:41;;;;;;;11.13;10.03;;;;;;;;;;5047493;28;20470;-62
2021/11/20 13:27:06;;;;;;;11.67;10.47;;;;;;;;;;5050951;28;20475;-63
2021/11/20 13:29:37;;;;;;;11.87;10.43;;;;;;;;;;5049263;28;20460;-62
2021/11/20 13:32:06;;;;;;;9.23;8.43;;;;;;;;;;5042501;28;20232;-62
2021/11/20 13:34:32;;;;;;;10.03;9.00;;;;;;;;;;5045689;28;20484;-62
2021/11/20 13:36:57;;;;;;;11.50;9.70;;;;;;;;;;5050963;28;20477;-62
2021/11/20 13:39:23;;;;;;;10.60;9.50;;;;;;;;;;5049909;28;20477;-62
2021/11/20 13:41:56;;;;;;;12.00;10.80;;;;;;;;;;5043007;28;20226;-61
2021/11/20 13:44:24;;;;;;;10.10;9.10;;;;;;;;;;5043938;28;20464;-62
2021/11/20 13:46:52;;;;;;;12.27;10.37;;;;;;;;;;5031096;28;20460;-62
2021/11/20 13:49:17;;;;;;;11.73;10.53;;;;;;;;;;5043259;28;20468;-62
2021/11/20 13:51:43;;;;;;;15.40;11.23;;;;;;;;;;5051155;28;20522;-62
2021/11/20 13:54:13;;;;;;;11.50;9.93;;;;;;;;;;5049656;28;20220;-62
2021/11/20 13:56:40;;;;;;;12.30;9.87;;;;;;;;;;5043938;28;20236;-62
2021/11/20 13:59:08;;;;;;;10.73;9.53;;;;;;;;;;5043713;28;20951;-62
2021/11/20 14:01:48;;;;;;;12.00;10.17;;;;;;;;;;5049083;28;20473;-63
2021/11/20 14:04:14;;;;;;;13.30;9.70;;;;;;;;;;5050628;28;20536;-63
2021/11/20 14:06:40;;;;;;;11.10;10.10;;;;;;;;;;5047585;28;20543;-62
2021/11/20 14:09:15;;;;;;;12.57;11.10;;;;;;;;;;5043230;28;20271;-62
2021/11/20 14:11:49;;;;;;;11.93;10.60;;;;;;;;;;5046506;28;20440;-62
2021/11/20 14:14:19;;;;;;;11.27;10.10;;;;;;;;;;5050051;28;20456;-62
2021/11/20 14:16:45;;;;;;;11.40;10.33;;;;;;;;;;5049176;28;20574;-62
2021/11/20 14:19:14;;;;;;;12.17;10.83;;;;;;;;;;5037282;28;20539;-63
2021/11/20 14:21:40;;;;;;;11.20;10.07;;;;;;;;;;5048646;28;20225;-63
2021/11/20 14:24:08;;;;;;;12.00;10.80;;;;;;;;;;5049734;28;20461;-62
2021/11/20 14:27:04;;;;;;;10.63;9.53;;;;;;;;;;5050265;28;20460;-63
2021/11/20 14:29:39;;;;;;;13.33;10.97;;;;;;;;;;5032525;28;20470;-62
2021/11/20 14:32:07;;;;;;;11.20;10.10;;;;;;;;;;5042860;28;20517;-62
2021/11/20 14:34:36;;;;;;;11.77;10.60;;;;;;;;;;5045482;28;20484;-63
2021/11/20 14:37:27;;;;;;;11.40;10.30;;;;;;;;;;5049917;28;20514;-62
2021/11/20 14:39:55;;;;;;;12.53;10.60;;;;;;;;;;5049742;28;20543;-62
2021/11/20 14:42:22;;;;;;;13.80;11.50;;;;;;;;;;5046059;28;21009;-62
2021/11/20 14:44:49;;;;;;;11.00;10.03;;;;;;;;;;5043068;28;20469;-62
2021/11/20 14:47:18;;;;;;;11.03;9.97;;;;;;;;;;5047541;28;20531;-62
2021/11/20 14:49:52;;;;;;;11.93;10.83;;;;;;;;;;5049234;28;20497;-62
2021/11/20 14:52:27;;;;;;;13.00;9.40;;;;;;;;;;5046704;28;20474;-62
2021/11/20 14:54:55;;;;;;;12.43;11.33;;;;;;;;;;5042713;28;20830;-62
2021/11/20 14:57:25;;;;;;;11.43;10.43;;;;;;;;;;5043705;28;20474;-62
2021/11/20 14:59:51;;;;;;;15.40;11.13;;;;;;;;;;5049897;28;20468;-63
2021/11/20 15:02:16;;;;;;;13.03;11.40;;;;;;;;;;5048520;28;20906;-62
2021/11/20 15:04:43;;;;;;;13.73;12.43;;;;;;;;;;5042348;28;20308;-63